sensor_id;sensor_type;location;lat;lon;timestamp;pressure;altitude;pressure_sealevel;temperature;humidity
52975;BME280;38839;45.186;5.720;2023-05-07T00:00:20;98975.75;;;19.87;45.58
52975;BME280;38839;45.186;5.720;2023-05-07T00:02:46;98982.63;;;19.92;45.64
52975;BME280;38839;45.186;5.720;2023-05-07T00:05:11;98987.19;;;19.88;45.61
52975;BME280;38839;45.186;5.720;2023-05-07T00:07:37;98996.78;;;19.90;45.38
52975;BME280;38839;45.186;5.720;2023-05-07T00:10:03;98993.78;;;19.98;45.44
52975;BME280;38839;45.186;5.720;2023-05-07T00:12:29;99001.59;;;20.01;45.10
52975;BME280;38839;45.186;5.720;2023-05-07T00:14:56;98993.78;;;19.98;45.17
52975;BME280;38839;45.186;5.720;2023-05-07T00:17:22;99003.59;;;19.96;45.32
52975;BME280;38839;45.186;5.720;2023-05-07T00:19:47;99000.22;;;19.93;45.30
52975;BME280;38839;45.186;5.720;2023-05-07T00:22:13;99002.28;;;19.86;45.54
52975;BME280;38839;45.186;5.720;2023-05-07T00:24:38;99001.69;;;19.79;45.65
52975;BME280;38839;45.186;5.720;2023-05-07T00:27:03;99001.88;;;19.75;45.94
52975;BME280;38839;45.186;5.720;2023-05-07T00:29:29;98999.38;;;19.72;46.22
52975;BME280;38839;45.186;5.720;2023-05-07T00:31:54;99002.25;;;19.65;46.21
52975;BME280;38839;45.186;5.720;2023-05-07T00:34:20;99006.59;;;19.66;46.13
52975;BME280;38839;45.186;5.720;2023-05-07T00:36:45;99005.94;;;19.61;46.11
52975;BME280;38839;45.186;5.720;2023-05-07T00:39:11;98995.63;;;19.55;46.13
52975;BME280;38839;45.186;5.720;2023-05-07T00:41:36;98996.53;;;19.54;46.35
52975;BME280;38839;45.186;5.720;2023-05-07T00:44:03;99001.75;;;19.56;46.26
52975;BME280;38839;45.186;5.720;2023-05-07T00:46:30;98997.31;;;19.56;45.94
52975;BME280;38839;45.186;5.720;2023-05-07T00:48:56;99003.63;;;19.54;46.05
52975;BME280;38839;45.186;5.720;2023-05-07T00:51:23;99010.91;;;19.48;46.06
52975;BME280;38839;45.186;5.720;2023-05-07T00:53:52;99008.31;;;19.47;45.99
52975;BME280;38839;45.186;5.720;2023-05-07T00:56:17;98997.72;;;19.47;46.11
52975;BME280;38839;45.186;5.720;2023-05-07T00:58:43;98997.59;;;19.50;45.84
52975;BME280;38839;45.186;5.720;2023-05-07T01:01:09;99001.28;;;19.46;45.93
52975;BME280;38839;45.186;5.720;2023-05-07T01:03:34;98996.00;;;19.46;45.98
52975;BME280;38839;45.186;5.720;2023-05-07T01:06:01;99000.56;;;19.42;46.18
52975;BME280;38839;45.186;5.720;2023-05-07T01:08:28;98997.97;;;19.41;46.25
52975;BME280;38839;45.186;5.720;2023-05-07T01:10:56;99005.13;;;19.39;46.38
52975;BME280;38839;45.186;5.720;2023-05-07T01:13:22;99002.53;;;19.37;46.40
52975;BME280;38839;45.186;5.720;2023-05-07T01:15:49;99007.03;;;19.35;46.22
52975;BME280;38839;45.186;5.720;2023-05-07T01:18:15;99008.94;;;19.32;46.49
52975;BME280;38839;45.186;5.720;2023-05-07T01:20:41;99009.06;;;19.28;46.65
52975;BME280;38839;45.186;5.720;2023-05-07T01:23:07;99015.34;;;19.26;46.87
52975;BME280;38839;45.186;5.720;2023-05-07T01:25:32;99022.50;;;19.24;47.06
52975;BME280;38839;45.186;5.720;2023-05-07T01:27:58;99022.66;;;19.19;47.24
52975;BME280;38839;45.186;5.720;2023-05-07T01:30:26;99017.38;;;19.19;47.37
52975;BME280;38839;45.186;5.720;2023-05-07T01:33:19;99027.78;;;19.24;47.70
52975;BME280;38839;45.186;5.720;2023-05-07T01:35:48;99027.88;;;19.21;47.71
52975;BME280;38839;45.186;5.720;2023-05-07T01:38:14;99027.94;;;19.19;47.78
52975;BME280;38839;45.186;5.720;2023-05-07T01:40:40;99027.13;;;19.17;47.82
52975;BME280;38839;45.186;5.720;2023-05-07T01:43:06;99023.69;;;19.15;47.83
52975;BME280;38839;45.186;5.720;2023-05-07T01:45:32;99019.34;;;19.14;47.66
52975;BME280;38839;45.186;5.720;2023-05-07T01:48:00;99021.84;;;19.17;47.82
52975;BME280;38839;45.186;5.720;2023-05-07T01:50:26;99020.00;;;19.19;47.82
52975;BME280;38839;45.186;5.720;2023-05-07T01:52:52;99012.28;;;19.15;47.85
52975;BME280;38839;45.186;5.720;2023-05-07T01:55:17;99021.94;;;19.16;47.84
52975;BME280;38839;45.186;5.720;2023-05-07T01:57:43;99015.09;;;19.10;47.99
52975;BME280;38839;45.186;5.720;2023-05-07T02:00:09;99014.13;;;19.13;48.04
52975;BME280;38839;45.186;5.720;2023-05-07T02:02:34;99012.31;;;19.13;48.18
52975;BME280;38839;45.186;5.720;2023-05-07T02:05:00;99018.66;;;19.09;48.26
52975;BME280;38839;45.186;5.720;2023-05-07T02:07:26;99009.94;;;19.07;48.49
52975;BME280;38839;45.186;5.720;2023-05-07T02:09:52;99017.94;;;19.05;49.27
52975;BME280;38839;45.186;5.720;2023-05-07T02:12:17;99021.31;;;19.09;49.41
52975;BME280;38839;45.186;5.720;2023-05-07T02:14:42;99019.78;;;19.03;50.29
52975;BME280;38839;45.186;5.720;2023-05-07T02:17:08;99020.75;;;19.01;51.20
52975;BME280;38839;45.186;5.720;2023-05-07T02:19:33;99022.59;;;18.99;52.14
52975;BME280;38839;45.186;5.720;2023-05-07T02:21:59;99014.25;;;18.87;53.40
52975;BME280;38839;45.186;5.720;2023-05-07T02:24:24;99017.19;;;18.78;54.68
52975;BME280;38839;45.186;5.720;2023-05-07T02:26:50;99014.69;;;18.75;54.89
52975;BME280;38839;45.186;5.720;2023-05-07T02:29:15;99019.13;;;18.75;55.19
52975;BME280;38839;45.186;5.720;2023-05-07T02:31:40;99011.19;;;18.75;55.62
52975;BME280;38839;45.186;5.720;2023-05-07T02:34:06;99008.13;;;18.62;56.00
52975;BME280;38839;45.186;5.720;2023-05-07T02:36:31;99014.41;;;18.59;56.03
52975;BME280;38839;45.186;5.720;2023-05-07T02:38:56;99024.13;;;18.59;55.92
52975;BME280;38839;45.186;5.720;2023-05-07T02:41:22;99022.47;;;18.56;55.55
52975;BME280;38839;45.186;5.720;2023-05-07T02:43:47;99019.88;;;18.55;55.30
52975;BME280;38839;45.186;5.720;2023-05-07T02:46:12;99023.50;;;18.52;54.88
52975;BME280;38839;45.186;5.720;2023-05-07T02:48:38;99019.91;;;18.53;54.42
52975;BME280;38839;45.186;5.720;2023-05-07T02:51:04;99024.34;;;18.53;54.16
52975;BME280;38839;45.186;5.720;2023-05-07T02:53:31;99024.44;;;18.49;53.75
52975;BME280;38839;45.186;5.720;2023-05-07T02:55:57;99025.38;;;18.48;53.73
52975;BME280;38839;45.186;5.720;2023-05-07T02:58:23;99021.75;;;18.51;53.67
52975;BME280;38839;45.186;5.720;2023-05-07T03:00:48;99014.13;;;18.43;53.46
52975;BME280;38839;45.186;5.720;2023-05-07T03:03:14;99014.19;;;18.42;53.34
52975;BME280;38839;45.186;5.720;2023-05-07T03:05:40;99007.13;;;18.42;53.14
52975;BME280;38839;45.186;5.720;2023-05-07T03:08:05;99007.34;;;18.36;53.23
52975;BME280;38839;45.186;5.720;2023-05-07T03:10:31;99010.03;;;18.35;52.99
52975;BME280;38839;45.186;5.720;2023-05-07T03:12:56;99009.25;;;18.33;52.84
52975;BME280;38839;45.186;5.720;2023-05-07T03:15:21;99007.81;;;18.24;53.22
52975;BME280;38839;45.186;5.720;2023-05-07T03:17:47;99006.19;;;18.20;53.22
52975;BME280;38839;45.186;5.720;2023-05-07T03:20:13;98995.69;;;18.18;53.38
52975;BME280;38839;45.186;5.720;2023-05-07T03:22:38;98996.63;;;18.17;53.73
52975;BME280;38839;45.186;5.720;2023-05-07T03:25:05;98997.69;;;18.12;53.97
52975;BME280;38839;45.186;5.720;2023-05-07T03:27:30;98997.69;;;18.12;54.06
52975;BME280;38839;45.186;5.720;2023-05-07T03:29:56;98997.66;;;18.13;54.41
52975;BME280;38839;45.186;5.720;2023-05-07T03:32:21;99003.81;;;18.12;54.37
52975;BME280;38839;45.186;5.720;2023-05-07T03:34:47;99007.66;;;18.03;54.87
52975;BME280;38839;45.186;5.720;2023-05-07T03:37:12;99013.97;;;17.99;54.93
52975;BME280;38839;45.186;5.720;2023-05-07T03:39:37;99010.75;;;17.91;55.85
52975;BME280;38839;45.186;5.720;2023-05-07T03:42:03;99010.16;;;17.81;56.90
52975;BME280;38839;45.186;5.720;2023-05-07T03:44:28;99015.59;;;17.77;57.26
52975;BME280;38839;45.186;5.720;2023-05-07T03:46:54;99015.44;;;17.81;57.75
52975;BME280;38839;45.186;5.720;2023-05-07T03:49:20;99014.69;;;17.78;58.09
52975;BME280;38839;45.186;5.720;2023-05-07T03:51:46;99022.72;;;17.75;57.93
52975;BME280;38839;45.186;5.720;2023-05-07T03:54:11;99020.97;;;17.74;57.11
52975;BME280;38839;45.186;5.720;2023-05-07T03:56:37;99024.84;;;17.63;57.09
52975;BME280;38839;45.186;5.720;2023-05-07T03:59:02;99027.69;;;17.57;57.05
52975;BME280;38839;45.186;5.720;2023-05-07T04:01:27;99028.47;;;17.61;56.94
52975;BME280;38839;45.186;5.720;2023-05-07T04:03:53;99022.41;;;17.57;56.87
52975;BME280;38839;45.186;5.720;2023-05-07T04:06:18;99026.78;;;17.58;56.87
52975;BME280;38839;45.186;5.720;2023-05-07T04:08:44;99031.34;;;17.53;56.80
52975;BME280;38839;45.186;5.720;2023-05-07T04:11:09;99037.84;;;17.43;57.19
52975;BME280;38839;45.186;5.720;2023-05-07T04:13:34;99039.53;;;17.45;57.15
52975;BME280;38839;45.186;5.720;2023-05-07T04:16:02;99046.47;;;17.48;57.07
52975;BME280;38839;45.186;5.720;2023-05-07T04:18:28;99046.63;;;17.43;57.18
52975;BME280;38839;45.186;5.720;2023-05-07T04:20:53;99048.91;;;17.54;56.89
52975;BME280;38839;45.186;5.720;2023-05-07T04:23:19;99052.34;;;17.56;57.14
52975;BME280;38839;45.186;5.720;2023-05-07T04:25:44;99060.75;;;17.67;56.75
52975;BME280;38839;45.186;5.720;2023-05-07T04:28:10;99062.34;;;17.73;56.74
52975;BME280;38839;45.186;5.720;2023-05-07T04:30:36;99065.81;;;17.74;56.95
52975;BME280;38839;45.186;5.720;2023-05-07T04:33:02;99063.28;;;17.72;57.29
52975;BME280;38839;45.186;5.720;2023-05-07T04:35:27;99071.22;;;17.70;57.53
52975;BME280;38839;45.186;5.720;2023-05-07T04:37:52;99072.69;;;17.53;58.09
52975;BME280;38839;45.186;5.720;2023-05-07T04:40:18;99065.38;;;17.61;58.18
52975;BME280;38839;45.186;5.720;2023-05-07T04:42:43;99076.72;;;17.64;58.74
52975;BME280;38839;45.186;5.720;2023-05-07T04:45:09;99078.34;;;17.68;59.15
52975;BME280;38839;45.186;5.720;2023-05-07T04:47:35;99079.09;;;17.72;59.35
52975;BME280;38839;45.186;5.720;2023-05-07T04:50:01;99078.22;;;17.72;59.44
52975;BME280;38839;45.186;5.720;2023-05-07T04:52:26;99080.47;;;17.84;59.58
52975;BME280;38839;45.186;5.720;2023-05-07T04:54:52;99085.53;;;17.90;59.68
52975;BME280;38839;45.186;5.720;2023-05-07T04:57:17;99081.06;;;17.92;59.58
52975;BME280;38839;45.186;5.720;2023-05-07T04:59:44;99086.75;;;18.06;59.44
52975;BME280;38839;45.186;5.720;2023-05-07T05:02:10;99087.75;;;18.02;59.35
52975;BME280;38839;45.186;5.720;2023-05-07T05:04:36;99092.94;;;18.05;59.22
52975;BME280;38839;45.186;5.720;2023-05-07T05:07:02;99093.03;;;18.02;59.30
52975;BME280;38839;45.186;5.720;2023-05-07T05:09:29;99094.13;;;17.97;59.36
52975;BME280;38839;45.186;5.720;2023-05-07T05:11:55;99096.97;;;17.91;59.74
52975;BME280;38839;45.186;5.720;2023-05-07T05:14:20;99099.72;;;17.87;59.92
52975;BME280;38839;45.186;5.720;2023-05-07T05:16:46;99096.81;;;17.95;59.76
52975;BME280;38839;45.186;5.720;2023-05-07T05:19:11;99101.97;;;17.98;59.62
52975;BME280;38839;45.186;5.720;2023-05-07T05:21:36;99103.38;;;18.08;59.23
52975;BME280;38839;45.186;5.720;2023-05-07T05:24:02;99098.47;;;18.23;59.17
52975;BME280;38839;45.186;5.720;2023-05-07T05:26:27;99108.03;;;18.27;59.02
52975;BME280;38839;45.186;5.720;2023-05-07T05:28:52;99109.63;;;18.31;58.88
52975;BME280;38839;45.186;5.720;2023-05-07T05:31:18;99109.75;;;18.28;59.14
52975;BME280;38839;45.186;5.720;2023-05-07T05:33:43;99106.09;;;18.32;59.24
52975;BME280;38839;45.186;5.720;2023-05-07T05:36:09;99103.50;;;18.30;59.34
52975;BME280;38839;45.186;5.720;2023-05-07T05:38:36;99104.25;;;18.34;59.04
52975;BME280;38839;45.186;5.720;2023-05-07T05:41:01;99110.09;;;18.44;58.94
52975;BME280;38839;45.186;5.720;2023-05-07T05:43:27;99110.81;;;18.47;58.66
52975;BME280;38839;45.186;5.720;2023-05-07T05:45:52;99113.47;;;18.47;58.67
52975;BME280;38839;45.186;5.720;2023-05-07T05:48:17;99105.66;;;18.44;58.68
52975;BME280;38839;45.186;5.720;2023-05-07T05:50:43;99103.03;;;18.44;58.75
52975;BME280;38839;45.186;5.720;2023-05-07T05:53:08;99097.28;;;18.57;58.61
52975;BME280;38839;45.186;5.720;2023-05-07T05:55:34;99093.72;;;18.58;58.54
52975;BME280;38839;45.186;5.720;2023-05-07T05:58:00;99098.63;;;18.68;58.18
52975;BME280;38839;45.186;5.720;2023-05-07T06:00:26;99092.44;;;18.68;58.10
52975;BME280;38839;45.186;5.720;2023-05-07T06:02:52;99100.03;;;18.54;58.59
52975;BME280;38839;45.186;5.720;2023-05-07T06:05:17;99098.53;;;18.46;58.38
52975;BME280;38839;45.186;5.720;2023-05-07T06:07:43;99098.81;;;18.39;58.73
52975;BME280;38839;45.186;5.720;2023-05-07T06:10:08;99104.81;;;18.44;58.36
52975;BME280;38839;45.186;5.720;2023-05-07T06:12:34;99095.94;;;18.45;58.26
52975;BME280;38839;45.186;5.720;2023-05-07T06:14:59;99095.41;;;18.35;57.73
52975;BME280;38839;45.186;5.720;2023-05-07T06:17:24;99099.63;;;18.41;57.28
52975;BME280;38839;45.186;5.720;2023-05-07T06:19:51;99098.78;;;18.64;56.62
52975;BME280;38839;45.186;5.720;2023-05-07T06:22:16;99095.38;;;18.85;56.04
52975;BME280;38839;45.186;5.720;2023-05-07T06:24:41;99098.97;;;19.06;55.44
52975;BME280;38839;45.186;5.720;2023-05-07T06:27:07;99090.25;;;19.26;54.70
52975;BME280;38839;45.186;5.720;2023-05-07T06:29:32;99097.75;;;19.59;53.66
52975;BME280;38839;45.186;5.720;2023-05-07T06:32:12;99097.63;;;19.62;52.81
52975;BME280;38839;45.186;5.720;2023-05-07T06:34:38;99101.53;;;19.76;52.63
52975;BME280;38839;45.186;5.720;2023-05-07T06:37:04;99098.22;;;19.91;52.45
52975;BME280;38839;45.186;5.720;2023-05-07T06:39:29;99095.59;;;20.12;51.73
52975;BME280;38839;45.186;5.720;2023-05-07T06:41:55;99098.44;;;20.27;51.10
52975;BME280;38839;45.186;5.720;2023-05-07T06:44:20;99106.72;;;20.40;50.84
52975;BME280;38839;45.186;5.720;2023-05-07T07:50:29;99123.38;;;22.81;45.21
52975;BME280;38839;45.186;5.720;2023-05-07T07:52:55;99115.38;;;23.15;44.46
52975;BME280;38839;45.186;5.720;2023-05-07T07:55:20;99121.56;;;23.31;43.58
52975;BME280;38839;45.186;5.720;2023-05-07T07:57:48;99118.28;;;23.42;43.28
52975;BME280;38839;45.186;5.720;2023-05-07T08:00:14;99124.47;;;23.10;44.00
52975;BME280;38839;45.186;5.720;2023-05-07T08:02:40;99130.25;;;22.85;44.42
52975;BME280;38839;45.186;5.720;2023-05-07T08:05:06;99126.56;;;22.55;45.19
52975;BME280;38839;45.186;5.720;2023-05-07T08:07:31;99127.72;;;22.66;45.19
52975;BME280;38839;45.186;5.720;2023-05-07T08:09:57;99132.25;;;22.64;44.91
52975;BME280;38839;45.186;5.720;2023-05-07T08:12:22;99121.25;;;22.55;45.04
52975;BME280;38839;45.186;5.720;2023-05-07T08:14:48;99128.91;;;22.43;45.53
52975;BME280;38839;45.186;5.720;2023-05-07T08:17:13;99124.41;;;22.28;45.66
52975;BME280;38839;45.186;5.720;2023-05-07T08:19:41;99127.31;;;22.04;45.59
52975;BME280;38839;45.186;5.720;2023-05-07T08:22:06;99123.03;;;22.02;45.73
52975;BME280;38839;45.186;5.720;2023-05-07T08:24:32;99123.56;;;22.08;45.43
52975;BME280;38839;45.186;5.720;2023-05-07T08:26:57;99131.09;;;22.18;45.15
52975;BME280;38839;45.186;5.720;2023-05-07T08:29:23;99136.41;;;22.35;45.03
52975;BME280;38839;45.186;5.720;2023-05-07T08:31:48;99134.84;;;22.31;44.93
52975;BME280;38839;45.186;5.720;2023-05-07T08:34:13;99132.66;;;22.22;45.34
52975;BME280;38839;45.186;5.720;2023-05-07T08:36:39;99128.19;;;22.22;45.54
52975;BME280;38839;45.186;5.720;2023-05-07T08:39:06;99137.03;;;22.23;45.33
52975;BME280;38839;45.186;5.720;2023-05-07T08:41:32;99143.50;;;22.00;45.82
52975;BME280;38839;45.186;5.720;2023-05-07T08:43:58;99143.09;;;21.90;46.04
52975;BME280;38839;45.186;5.720;2023-05-07T08:46:30;99150.63;;;21.99;46.04
52975;BME280;38839;45.186;5.720;2023-05-07T08:48:56;99145.06;;;21.86;46.38
52975;BME280;38839;45.186;5.720;2023-05-07T08:51:22;99150.69;;;21.80;46.42
52975;BME280;38839;45.186;5.720;2023-05-07T08:53:48;99136.31;;;21.84;47.08
52975;BME280;38839;45.186;5.720;2023-05-07T08:56:14;99153.41;;;21.79;47.61
52975;BME280;38839;45.186;5.720;2023-05-07T08:58:41;99150.88;;;21.58;48.19
52975;BME280;38839;45.186;5.720;2023-05-07T09:01:09;99154.31;;;21.41;49.14
52975;BME280;38839;45.186;5.720;2023-05-07T09:03:36;99153.88;;;21.32;49.11
52975;BME280;38839;45.186;5.720;2023-05-07T09:06:01;99154.66;;;21.15;49.94
52975;BME280;38839;45.186;5.720;2023-05-07T09:08:27;99162.75;;;21.12;50.36
52975;BME280;38839;45.186;5.720;2023-05-07T09:10:53;99159.03;;;21.16;50.23
52975;BME280;38839;45.186;5.720;2023-05-07T09:13:19;99170.47;;;20.97;50.28
52975;BME280;38839;45.186;5.720;2023-05-07T09:15:44;99165.06;;;21.00;50.58
52975;BME280;38839;45.186;5.720;2023-05-07T09:18:10;99164.63;;;21.09;51.39
52975;BME280;38839;45.186;5.720;2023-05-07T09:20:39;99167.19;;;21.11;52.47
52975;BME280;38839;45.186;5.720;2023-05-07T09:23:05;99171.44;;;21.15;52.81
52975;BME280;38839;45.186;5.720;2023-05-07T09:25:32;99177.81;;;21.11;52.40
52975;BME280;38839;45.186;5.720;2023-05-07T09:27:59;99185.53;;;20.97;53.37
52975;BME280;38839;45.186;5.720;2023-05-07T09:30:31;99184.34;;;20.83;53.92
52975;BME280;38839;45.186;5.720;2023-05-07T09:33:01;99190.09;;;20.74;54.34
52975;BME280;38839;45.186;5.720;2023-05-07T09:35:28;99201.81;;;20.68;54.65
52975;BME280;38839;45.186;5.720;2023-05-07T09:37:55;99197.84;;;20.58;55.07
52975;BME280;38839;45.186;5.720;2023-05-07T09:40:25;99191.50;;;20.40;56.40
52975;BME280;38839;45.186;5.720;2023-05-07T09:42:51;99192.38;;;20.41;55.57
52975;BME280;38839;45.186;5.720;2023-05-07T09:45:26;99193.88;;;20.26;55.82
52975;BME280;38839;45.186;5.720;2023-05-07T09:47:56;99189.25;;;20.31;55.86
52975;BME280;38839;45.186;5.720;2023-05-07T09:50:27;99184.88;;;20.30;55.75
52975;BME280;38839;45.186;5.720;2023-05-07T09:52:54;99194.00;;;20.23;55.76
52975;BME280;38839;45.186;5.720;2023-05-07T09:55:21;99193.53;;;20.13;56.42
52975;BME280;38839;45.186;5.720;2023-05-07T09:57:52;99185.47;;;20.16;56.70
52975;BME280;38839;45.186;5.720;2023-05-07T10:00:20;99189.81;;;20.17;56.15
52975;BME280;38839;45.186;5.720;2023-05-07T10:02:48;99190.09;;;20.11;56.20
52975;BME280;38839;45.186;5.720;2023-05-07T10:05:15;99191.09;;;20.08;56.71
52975;BME280;38839;45.186;5.720;2023-05-07T10:07:41;99197.47;;;20.03;56.15
52975;BME280;38839;45.186;5.720;2023-05-07T10:10:07;99192.72;;;20.11;55.87
52975;BME280;38839;45.186;5.720;2023-05-07T10:12:32;99206.97;;;20.08;55.59
52975;BME280;38839;45.186;5.720;2023-05-07T10:15:05;99185.59;;;19.91;56.28
52975;BME280;38839;45.186;5.720;2023-05-07T10:17:31;99200.13;;;19.81;55.92
52975;BME280;38839;45.186;5.720;2023-05-07T10:19:58;99203.38;;;19.65;55.84
52975;BME280;38839;45.186;5.720;2023-05-07T10:22:24;99205.03;;;19.68;55.83
52975;BME280;38839;45.186;5.720;2023-05-07T10:24:53;99206.13;;;19.62;56.04
52975;BME280;38839;45.186;5.720;2023-05-07T10:27:21;99209.09;;;19.55;55.98
52975;BME280;38839;45.186;5.720;2023-05-07T10:30:05;99210.06;;;19.52;56.44
52975;BME280;38839;45.186;5.720;2023-05-07T10:32:49;99213.06;;;19.43;56.68
52975;BME280;38839;45.186;5.720;2023-05-07T10:35:25;99210.47;;;19.41;56.55
52975;BME280;38839;45.186;5.720;2023-05-07T10:37:52;99209.63;;;19.41;56.23
52975;BME280;38839;45.186;5.720;2023-05-07T10:40:18;99210.59;;;19.38;56.87
52975;BME280;38839;45.186;5.720;2023-05-07T10:45:21;99201.34;;;19.26;57.04
52975;BME280;38839;45.186;5.720;2023-05-07T10:48:12;99215.66;;;19.44;57.09
52975;BME280;38839;45.186;5.720;2023-05-07T10:50:39;99197.56;;;19.56;56.92
52975;BME280;38839;45.186;5.720;2023-05-07T10:55:50;99204.28;;;19.88;56.55
52975;BME280;38839;45.186;5.720;2023-05-07T11:00:48;99204.94;;;20.15;55.21
52975;BME280;38839;45.186;5.720;2023-05-07T11:03:14;99213.00;;;20.12;54.75
52975;BME280;38839;45.186;5.720;2023-05-07T11:05:41;99211.75;;;20.21;54.72
52975;BME280;38839;45.186;5.720;2023-05-07T11:08:07;99213.31;;;20.47;53.88
52975;BME280;38839;45.186;5.720;2023-05-07T11:10:52;99206.22;;;20.47;53.95
52975;BME280;38839;45.186;5.720;2023-05-07T11:13:19;99209.97;;;20.64;53.66
52975;BME280;38839;45.186;5.720;2023-05-07T11:16:03;99211.81;;;20.62;53.66
52975;BME280;38839;45.186;5.720;2023-05-07T11:18:55;99223.22;;;20.64;53.01
52975;BME280;38839;45.186;5.720;2023-05-07T11:21:33;99225.03;;;20.63;52.83
52975;BME280;38839;45.186;5.720;2023-05-07T11:23:59;99220.91;;;20.55;53.01
52975;BME280;38839;45.186;5.720;2023-05-07T11:26:26;99222.44;;;20.40;53.43
52975;BME280;38839;45.186;5.720;2023-05-07T11:28:52;99227.78;;;20.38;53.20
52975;BME280;38839;45.186;5.720;2023-05-07T11:31:24;99236.53;;;20.40;53.06
52975;BME280;38839;45.186;5.720;2023-05-07T11:33:51;99233.34;;;20.32;53.28
52975;BME280;38839;45.186;5.720;2023-05-07T11:36:17;99232.25;;;20.16;53.51
52975;BME280;38839;45.186;5.720;2023-05-07T11:38:44;99223.97;;;20.25;53.43
52975;BME280;38839;45.186;5.720;2023-05-07T11:41:09;99234.66;;;20.22;53.44
52975;BME280;38839;45.186;5.720;2023-05-07T11:43:35;99232.56;;;20.30;53.44
52975;BME280;38839;45.186;5.720;2023-05-07T11:46:11;99228.47;;;20.43;53.20
52975;BME280;38839;45.186;5.720;2023-05-07T11:48:37;99235.16;;;20.32;52.98
52975;BME280;38839;45.186;5.720;2023-05-07T11:51:04;99242.06;;;20.14;52.98
52975;BME280;38839;45.186;5.720;2023-05-07T11:53:38;99234.44;;;19.84;53.69
52975;BME280;38839;45.186;5.720;2023-05-07T11:56:11;99235.56;;;20.00;53.70
52975;BME280;38839;45.186;5.720;2023-05-07T11:58:37;99231.47;;;20.14;53.33
52975;BME280;38839;45.186;5.720;2023-05-07T12:01:02;99229.09;;;20.28;53.05
52975;BME280;38839;45.186;5.720;2023-05-07T12:03:28;99230.66;;;20.12;53.40
52975;BME280;38839;45.186;5.720;2023-05-07T12:05:54;99234.00;;;20.17;53.27
52975;BME280;38839;45.186;5.720;2023-05-07T12:08:20;99237.31;;;20.22;53.08
52975;BME280;38839;45.186;5.720;2023-05-07T12:10:48;99247.63;;;20.50;52.88
52975;BME280;38839;45.186;5.720;2023-05-07T12:13:40;99243.22;;;20.71;52.43
52975;BME280;38839;45.186;5.720;2023-05-07T12:16:07;99244.53;;;20.81;52.08
52975;BME280;38839;45.186;5.720;2023-05-07T12:18:34;99241.59;;;21.08;51.55
52975;BME280;38839;45.186;5.720;2023-05-07T12:21:00;99241.19;;;21.17;51.39
52975;BME280;38839;45.186;5.720;2023-05-07T12:23:25;99247.25;;;21.21;51.04
52975;BME280;38839;45.186;5.720;2023-05-07T12:25:51;99244.50;;;21.22;51.18
52975;BME280;38839;45.186;5.720;2023-05-07T12:28:17;99242.22;;;21.34;51.20
52975;BME280;38839;45.186;5.720;2023-05-07T12:30:45;99239.06;;;21.25;51.27
52975;BME280;38839;45.186;5.720;2023-05-07T12:33:11;99240.97;;;21.22;51.35
52975;BME280;38839;45.186;5.720;2023-05-07T12:35:40;99247.91;;;21.05;52.07
52975;BME280;38839;45.186;5.720;2023-05-07T12:38:11;99238.94;;;21.08;52.04
52975;BME280;38839;45.186;5.720;2023-05-07T12:40:45;99243.28;;;21.10;51.90
52975;BME280;38839;45.186;5.720;2023-05-07T12:43:24;99250.06;;;21.16;52.05
52975;BME280;38839;45.186;5.720;2023-05-07T12:45:50;99251.81;;;21.17;52.04
52975;BME280;38839;45.186;5.720;2023-05-07T12:48:16;99252.81;;;21.15;51.91
52975;BME280;38839;45.186;5.720;2023-05-07T12:50:42;99257.41;;;21.11;52.38
52975;BME280;38839;45.186;5.720;2023-05-07T12:53:11;99252.38;;;21.05;52.63
52975;BME280;38839;45.186;5.720;2023-05-07T12:58:06;99251.06;;;20.74;53.67
52975;BME280;38839;45.186;5.720;2023-05-07T13:00:36;99250.88;;;20.57;53.96
52975;BME280;38839;45.186;5.720;2023-05-07T13:03:01;99253.72;;;20.52;54.52
52975;BME280;38839;45.186;5.720;2023-05-07T13:05:27;99248.28;;;20.35;55.13
52975;BME280;38839;45.186;5.720;2023-05-07T13:07:53;99261.97;;;20.02;55.88
52975;BME280;38839;45.186;5.720;2023-05-07T13:10:19;99256.13;;;19.94;56.27
52975;BME280;38839;45.186;5.720;2023-05-07T13:12:45;99253.34;;;20.19;55.81
52975;BME280;38839;45.186;5.720;2023-05-07T13:15:10;99257.94;;;20.36;55.39
52975;BME280;38839;45.186;5.720;2023-05-07T13:17:36;99257.19;;;20.32;55.73
52975;BME280;38839;45.186;5.720;2023-05-07T13:20:01;99247.81;;;20.45;55.35
52975;BME280;38839;45.186;5.720;2023-05-07T13:22:26;99255.34;;;20.34;55.89
52975;BME280;38839;45.186;5.720;2023-05-07T13:24:52;99244.72;;;20.14;56.41
52975;BME280;38839;45.186;5.720;2023-05-07T13:27:17;99254.19;;;20.19;56.33
52975;BME280;38839;45.186;5.720;2023-05-07T13:29:44;99259.19;;;20.27;56.13
52975;BME280;38839;45.186;5.720;2023-05-07T13:32:09;99258.59;;;19.98;56.95
52975;BME280;38839;45.186;5.720;2023-05-07T13:34:35;99263.56;;;19.84;57.34
52975;BME280;38839;45.186;5.720;2023-05-07T13:37:00;99261.47;;;19.68;57.75
52975;BME280;38839;45.186;5.720;2023-05-07T13:39:26;99259.66;;;19.70;57.83
52975;BME280;38839;45.186;5.720;2023-05-07T13:41:51;99254.06;;;19.78;57.67
52975;BME280;38839;45.186;5.720;2023-05-07T13:44:16;99258.63;;;19.75;58.23
52975;BME280;38839;45.186;5.720;2023-05-07T13:46:42;99275.19;;;19.80;57.85
52975;BME280;38839;45.186;5.720;2023-05-07T13:49:07;99271.69;;;20.01;57.14
52975;BME280;38839;45.186;5.720;2023-05-07T13:51:33;99279.16;;;20.14;56.70
52975;BME280;38839;45.186;5.720;2023-05-07T13:53:58;99270.78;;;20.02;57.22
52975;BME280;38839;45.186;5.720;2023-05-07T13:56:23;99278.44;;;20.10;57.01
52975;BME280;38839;45.186;5.720;2023-05-07T13:58:49;99281.25;;;19.83;57.80
52975;BME280;38839;45.186;5.720;2023-05-07T14:01:14;99287.22;;;19.65;58.41
52975;BME280;38839;45.186;5.720;2023-05-07T14:03:40;99292.50;;;19.65;58.58
52975;BME280;38839;45.186;5.720;2023-05-07T14:06:05;99293.34;;;19.42;59.09
52975;BME280;38839;45.186;5.720;2023-05-07T14:08:31;99298.22;;;19.29;59.88
52975;BME280;38839;45.186;5.720;2023-05-07T14:10:56;99297.22;;;19.08;60.43